createdAt,value
2022-12-15T00:02:51.532Z,97718.39
2022-12-15T00:08:24.810Z,97717.43
2022-12-15T00:13:49.723Z,97730.38
2022-12-15T00:19:14.700Z,97742.47
2022-12-15T00:24:40.098Z,97755.35
2022-12-15T00:30:05.221Z,97755.44
2022-12-15T00:35:31.343Z,97767.64
2022-12-15T00:40:38.951Z,97778.27
2022-12-15T00:46:12.454Z,97781.88
2022-12-15T00:51:20.794Z,97790.59
2022-12-15T00:56:48.107Z,97789.73
2022-12-15T01:02:13.103Z,97797.56
2022-12-15T01:07:38.612Z,97801.89
2022-12-15T01:13:05.048Z,97805.42
2022-12-15T01:18:29.994Z,97813.54
2022-12-15T01:23:38.599Z,97819.66
2022-12-15T01:28:46.252Z,97827.89
2022-12-15T01:33:56.732Z,97834.16
2022-12-15T01:39:10.857Z,97835.05
2022-12-15T01:44:21.935Z,97834.21
2022-12-15T01:49:33.045Z,97834.83
2022-12-15T01:54:44.348Z,97842.26
2022-12-15T01:59:59.147Z,97841.05
2022-12-15T02:05:09.004Z,97845.16
2022-12-15T02:13:53.254Z,97858.96
2022-12-15T02:19:10.585Z,97863.77
2022-12-15T02:24:49.724Z,97864.41
2022-12-15T02:30:31.470Z,97870.27
2022-12-15T02:36:03.397Z,97882.87
2022-12-15T02:41:39.206Z,97886.92
2022-12-15T02:47:05.963Z,97894.88
2022-12-15T02:52:27.799Z,97899.77
2022-12-15T02:58:01.169Z,97905.94
2022-12-15T03:03:09.817Z,97913.67
2022-12-15T03:08:17.222Z,97903.58
2022-12-15T03:13:31.480Z,97911.64
2022-12-15T03:18:43.197Z,97911.23
2022-12-15T03:23:50.647Z,97912.91
2022-12-15T03:28:58.197Z,97915.15
2022-12-15T03:34:05.757Z,97915.60
2022-12-15T03:39:14.121Z,97922.70
2022-12-15T03:44:21.386Z,97932.33
2022-12-15T03:49:28.876Z,97944.80
2022-12-15T03:54:34.752Z,97950.02
2022-12-15T03:59:48.500Z,97957.78
2022-12-15T04:04:56.099Z,97957.71
2022-12-15T04:10:03.442Z,97965.08
2022-12-15T04:15:13.046Z,97967.27
2022-12-15T04:20:24.293Z,97973.48
2022-12-15T04:25:49.000Z,97980.96
2022-12-15T04:31:16.934Z,97987.80
2022-12-15T04:36:43.091Z,97994.02
2022-12-15T04:42:08.036Z,98000.34
2022-12-15T04:47:33.139Z,98006.55
2022-12-15T04:52:57.845Z,98015.88
2022-12-15T04:58:29.614Z,98022.58
2022-12-15T05:09:37.579Z,98031.39
2022-12-15T05:15:03.046Z,98034.84
2022-12-15T05:20:29.306Z,98037.59
2022-12-15T05:25:55.801Z,98044.31
2022-12-15T05:31:28.337Z,98050.11
2022-12-15T05:36:38.868Z,98062.63
2022-12-15T05:41:47.730Z,98077.09
2022-12-15T05:46:55.720Z,98088.58
2022-12-15T05:52:04.031Z,98100.04
2022-12-15T05:57:11.253Z,98100.20
2022-12-15T06:02:19.124Z,98115.56
2022-12-15T06:07:27.047Z,98125.13
2022-12-15T06:12:34.761Z,98130.40
2022-12-15T06:17:41.996Z,98132.53
2022-12-15T06:22:50.440Z,98146.94
2022-12-15T06:28:01.728Z,98156.70
2022-12-15T06:33:10.921Z,98166.33
2022-12-15T06:38:21.778Z,98182.85
2022-12-15T06:43:33.658Z,98200.20
2022-12-15T06:48:45.312Z,98211.10
2022-12-15T06:53:56.532Z,98211.33
2022-12-15T06:59:06.472Z,98214.54
2022-12-15T07:04:14.430Z,98227.98
2022-12-15T07:09:22.064Z,98230.42
2022-12-15T07:14:30.691Z,98230.02
2022-12-15T07:19:38.195Z,98239.71
2022-12-15T07:24:46.230Z,98252.48
2022-12-15T07:29:53.834Z,98253.17
2022-12-15T07:35:05.487Z,98257.35
2022-12-15T07:40:14.291Z,98272.04
2022-12-15T07:45:22.083Z,98289.52
2022-12-15T07:50:30.403Z,98294.71
2022-12-15T07:56:06.423Z,98306.64
2022-12-15T08:01:16.474Z,98329.71
2022-12-15T08:06:23.925Z,98328.54
2022-12-15T08:11:35.461Z,98335.48
2022-12-15T08:16:43.933Z,98347.29
2022-12-15T08:21:51.635Z,98361.34
2022-12-15T08:27:01.617Z,98366.70
2022-12-15T08:32:10.910Z,98378.11
2022-12-15T08:42:58.429Z,98410.55
2022-12-15T08:48:06.062Z,98419.10
2022-12-15T08:53:30.918Z,98421.80
2022-12-15T08:58:40.660Z,98433.64
2022-12-15T09:03:50.721Z,98429.84
2022-12-15T09:09:15.652Z,98434.96
2022-12-15T09:14:29.457Z,98438.39
2022-12-15T09:19:37.321Z,98432.14
2022-12-15T09:24:44.658Z,98435.06
2022-12-15T09:29:52.254Z,98436.13
2022-12-15T09:34:59.656Z,98435.86
2022-12-15T09:40:07.763Z,98439.08
2022-12-15T09:45:21.259Z,98449.85
2022-12-15T09:50:35.352Z,98452.51
2022-12-15T09:55:45.376Z,98453.61
2022-12-15T10:01:03.189Z,98450.29
2022-12-15T10:06:16.993Z,98449.66
2022-12-15T10:11:42.427Z,98457.89
2022-12-15T10:17:00.205Z,98465.94
2022-12-15T10:22:05.972Z,98462.80
2022-12-15T10:27:36.351Z,98458.23
2022-12-15T10:33:00.542Z,98465.80
2022-12-15T10:38:15.560Z,98475.75
2022-12-15T10:43:31.421Z,98476.66
2022-12-15T10:48:39.780Z,98471.06
2022-12-15T10:53:50.944Z,98465.67
2022-12-15T10:59:00.285Z,98460.99
2022-12-15T11:04:25.490Z,98466.99
2022-12-15T11:09:36.704Z,98482.58
2022-12-15T11:14:47.917Z,98510.84
2022-12-15T11:20:02.984Z,98519.34
2022-12-15T11:25:22.302Z,98528.18
2022-12-15T11:30:35.171Z,98527.36
2022-12-15T11:35:55.532Z,98528.33
2022-12-15T11:41:13.637Z,98521.19
2022-12-15T11:46:25.344Z,98514.32
2022-12-15T11:51:45.406Z,98507.33
2022-12-15T11:56:58.193Z,98521.55
2022-12-15T12:02:25.486Z,98528.04
2022-12-15T12:07:42.452Z,98531.23
2022-12-15T12:13:01.576Z,98533.23
2022-12-15T12:18:15.410Z,98534.08
2022-12-15T12:23:39.822Z,98536.38
2022-12-15T12:28:58.481Z,98547.88
2022-12-15T12:34:14.749Z,98550.08
2022-12-15T12:39:25.758Z,98550.57
2022-12-15T12:44:35.619Z,98553.13
2022-12-15T12:49:47.020Z,98547.02
2022-12-15T12:55:05.034Z,98534.52
2022-12-15T13:00:24.040Z,98549.86
2022-12-15T13:05:36.356Z,98544.93
2022-12-15T13:10:45.552Z,98558.83
2022-12-15T13:16:03.598Z,98570.77
2022-12-15T13:21:52.876Z,98570.14
2022-12-15T13:27:17.417Z,98562.23
2022-12-15T13:32:40.144Z,98560.56
2022-12-15T13:37:54.346Z,98547.56
2022-12-15T13:43:09.423Z,98555.11
2022-12-15T13:48:33.012Z,98554.63
2022-12-15T13:53:51.488Z,98549.65
2022-12-15T13:59:06.309Z,98558.27
2022-12-15T14:04:16.815Z,98571.16
2022-12-15T14:09:41.431Z,98590.91
2022-12-15T14:14:53.305Z,98597.68
2022-12-15T14:20:11.867Z,98596.66
2022-12-15T14:25:23.074Z,98614.13
2022-12-15T14:30:33.878Z,98626.66
2022-12-15T14:35:49.469Z,98637.88
2022-12-15T14:41:02.151Z,98660.42
2022-12-15T14:46:13.015Z,98667.52
2022-12-15T14:51:20.886Z,98660.07
2022-12-15T14:56:31.776Z,98658.21
2022-12-15T15:01:41.850Z,98664.69
2022-12-15T15:06:55.196Z,98666.75
2022-12-15T15:12:07.204Z,98674.23
2022-12-15T15:17:25.552Z,98672.54
2022-12-15T15:22:41.097Z,98664.02
2022-12-15T15:27:48.823Z,98663.72
2022-12-15T15:32:58.640Z,98659.84
2022-12-15T15:38:12.792Z,98668.36
2022-12-15T15:43:20.784Z,98672.29
2022-12-15T15:48:32.404Z,98680.39
2022-12-15T15:53:40.535Z,98686.02
2022-12-15T15:58:48.556Z,98688.02
2022-12-15T16:03:55.718Z,98695.00
2022-12-15T16:09:03.290Z,98699.45
2022-12-15T16:14:14.551Z,98700.41
2022-12-15T16:19:21.914Z,98692.10
2022-12-15T16:24:29.359Z,98688.20
2022-12-15T16:29:38.537Z,98671.30
2022-12-15T16:34:45.902Z,98664.86
2022-12-15T16:43:19.852Z,98668.98
2022-12-15T16:48:27.182Z,98670.50
2022-12-15T16:53:37.970Z,98660.64
2022-12-15T16:58:48.759Z,98667.29
2022-12-15T17:04:00.562Z,98682.30
2022-12-15T17:09:09.575Z,98690.52
2022-12-15T17:14:17.079Z,98686.61
2022-12-15T17:19:24.391Z,98690.70
2022-12-15T17:24:30.051Z,98692.90
2022-12-15T17:29:37.343Z,98692.88
2022-12-15T17:34:43.435Z,98691.14
2022-12-15T17:39:51.915Z,98681.80
2022-12-15T17:44:59.406Z,98678.67
2022-12-15T17:50:07.651Z,98669.66
2022-12-15T17:55:34.836Z,98656.30
2022-12-15T18:00:48.914Z,98657.17
2022-12-15T18:06:07.614Z,98657.52
2022-12-15T18:11:17.977Z,98661.85
2022-12-15T18:16:25.288Z,98659.38
2022-12-15T18:21:32.691Z,98661.42
2022-12-15T18:26:40.623Z,98672.08
2022-12-15T18:31:49.770Z,98673.59
2022-12-15T18:36:57.841Z,98677.27
2022-12-15T18:42:29.518Z,98696.77
2022-12-15T18:47:40.183Z,98700.58
2022-12-15T18:52:49.262Z,98706.08
2022-12-15T18:57:59.012Z,98715.28
2022-12-15T19:03:06.669Z,98710.55
2022-12-15T19:08:20.446Z,98711.29
2022-12-15T19:13:32.000Z,98704.32
2022-12-15T19:18:57.094Z,98679.59
2022-12-15T19:32:23.096Z,98671.73
2022-12-15T19:37:32.177Z,98661.45
2022-12-15T19:42:41.165Z,98667.28
2022-12-15T19:47:48.979Z,98672.86
2022-12-15T19:52:59.407Z,98671.76
2022-12-15T20:08:17.720Z,98671.11
2022-12-15T20:13:22.556Z,98671.65
2022-12-15T20:18:26.862Z,98663.57
2022-12-15T20:23:31.596Z,98657.41
2022-12-15T20:28:36.265Z,98661.55
2022-12-15T20:33:45.266Z,98655.04
2022-12-15T20:38:54.717Z,98650.36
2022-12-15T20:44:28.694Z,98641.06
2022-12-15T20:49:33.068Z,98634.65
2022-12-15T20:54:37.230Z,98632.73
2022-12-15T20:59:42.009Z,98629.03
2022-12-15T21:04:47.006Z,98629.02
2022-12-15T21:09:51.228Z,98633.02
2022-12-15T21:14:55.456Z,98644.06
2022-12-15T21:20:00.531Z,98637.50
2022-12-15T21:25:15.023Z,98628.08
2022-12-15T21:30:25.489Z,98614.73
2022-12-15T21:35:31.884Z,98602.30
2022-12-15T21:41:05.352Z,98594.30
2022-12-15T21:46:15.421Z,98585.27
2022-12-15T21:51:19.539Z,98592.20
2022-12-15T21:56:23.492Z,98583.15
2022-12-15T22:01:30.414Z,98573.00
2022-12-15T22:06:34.496Z,98560.40
2022-12-15T22:11:40.355Z,98563.95
2022-12-15T22:16:44.788Z,98566.74
2022-12-15T22:21:49.323Z,98554.95
2022-12-15T22:26:53.295Z,98548.29
2022-12-15T22:31:58.809Z,98554.59
2022-12-15T22:37:03.075Z,98573.60
2022-12-15T22:42:09.293Z,98572.78
2022-12-15T22:47:13.561Z,98582.29
2022-12-15T22:52:19.876Z,98579.48
2022-12-15T22:57:26.219Z,98557.50
2022-12-15T23:02:35.838Z,98551.69
2022-12-15T23:07:39.641Z,98548.52
2022-12-15T23:12:43.547Z,98527.66
2022-12-15T23:17:47.257Z,98521.50
2022-12-15T23:22:51.082Z,98503.48
2022-12-15T23:27:55.610Z,98500.03
2022-12-15T23:32:59.446Z,98485.33
2022-12-15T23:43:19.223Z,98484.57
2022-12-15T23:48:29.912Z,98484.15
2022-12-15T23:53:38.423Z,98492.92
2022-12-15T23:58:47.636Z,98481.33
